Time;durP1;ratioP1;P1;durP2;ratioP2;P2;SDS_P1;SDS_P2;PMS_P1;PMS_P2;Temp;Humidity;BMP_temperature;BMP_pressure;BME280_temperature;BME280_humidity;BME280_pressure;Samples;Min_cycle;Max_cycle;Signal;HPM_P1;HPM_P2
2024/03/27 00:00:07;;;;;;;;;;;;;;;23.40;42.41;91352.19;5086051;28;7043;-65
2024/03/27 00:02:34;;;;;;;;;;;;;;;23.48;42.77;91360.31;5074868;28;8956;-59
2024/03/27 00:05:00;;;;;;;;;;;;;;;23.44;42.31;91349.03;5084136;28;7071;-60
2024/03/27 00:07:30;;;;;;;;;;;;;;;23.43;42.59;91350.31;5058236;28;9060;-60
2024/03/27 00:10:34;;;;;;;;;;;;;;;23.45;42.54;91344.97;5069739;28;7039;-60
2024/03/27 00:13:38;;;;;;;;;;;;;;;23.39;42.32;91333.53;5076809;28;9300;-63
2024/03/27 00:16:14;;;;;;;;;;;;;;;23.39;42.40;91341.78;5010088;28;9714;-63
2024/03/27 00:18:40;;;;;;;;;;;;;;;23.31;42.48;91338.38;5011746;28;9500;-63
2024/03/27 00:21:10;;;;;;;;;;;;;;;23.36;42.29;91340.19;5013904;28;9489;-56
2024/03/27 00:23:37;;;;;;;;;;;;;;;23.27;42.35;91346.31;4998334;28;9027;-56
2024/03/27 00:26:14;;;;;;;;;;;;;;;23.31;42.56;91341.13;4996322;28;7289;-56
2024/03/27 00:28:51;;;;;;;;;;;;;;;23.24;42.46;91323.47;4993591;28;8246;-57
2024/03/27 00:31:18;;;;;;;;;;;;;;;23.21;42.46;91311.63;4998122;28;7373;-56
2024/03/27 00:33:46;;;;;;;;;;;;;;;23.29;42.23;91330.00;4987317;28;7010;-56
2024/03/27 00:36:15;;;;;;;;;;;;;;;23.24;42.59;91313.25;5002798;28;9339;-56
2024/03/27 00:38:42;;;;;;;;;;;;;;;23.29;42.34;91313.56;5006159;28;7119;-56
2024/03/27 00:41:09;;;;;;;;;;;;;;;23.22;42.84;91312.34;5005593;28;9893;-57
2024/03/27 00:43:37;;;;;;;;;;;;;;;23.28;42.79;91318.31;4986256;28;7056;-56
2024/03/27 00:46:06;;;;;;;;;;;;;;;23.23;41.99;91319.28;4996821;28;7576;-56
2024/03/27 00:48:41;;;;;;;;;;;;;;;23.27;42.29;91323.06;5013664;28;7383;-56
2024/03/27 00:51:11;;;;;;;;;;;;;;;23.28;42.55;91312.81;5072112;28;7047;-56
2024/03/27 00:53:37;;;;;;;;;;;;;;;23.28;42.66;91296.38;5056456;28;6971;-56
2024/03/27 00:56:09;;;;;;;;;;;;;;;23.25;42.84;91292.75;5064821;28;7038;-56
2024/03/27 00:58:35;;;;;;;;;;;;;;;23.27;42.33;91296.94;5074885;28;6865;-56
2024/03/27 01:01:03;;;;;;;;;;;;;;;23.18;42.71;91282.59;5073836;28;9075;-56
2024/03/27 01:03:43;;;;;;;;;;;;;;;23.20;42.81;91282.03;5063256;28;9155;-55
2024/03/27 01:06:18;;;;;;;;;;;;;;;23.20;42.51;91282.03;5054289;28;7420;-55
2024/03/27 01:08:48;;;;;;;;;;;;;;;23.18;43.05;91287.38;5051092;28;7118;-56
2024/03/27 01:11:21;;;;;;;;;;;;;;;23.16;42.62;91298.19;5064821;28;9090;-56
2024/03/27 01:14:18;;;;;;;;;;;;;;;23.14;42.74;91287.78;5065786;28;9509;-55
2024/03/27 01:16:53;;;;;;;;;;;;;;;23.16;42.56;91290.66;5013358;28;7080;-56
2024/03/27 01:19:27;;;;;;;;;;;;;;;23.18;43.44;91303.81;5012996;28;7215;-56
2024/03/27 01:22:15;;;;;;;;;;;;;;;23.14;42.90;91281.59;4993352;28;9069;-56
2024/03/27 01:24:47;;;;;;;;;;;;;;;23.16;42.61;91301.63;4997388;28;7330;-56
2024/03/27 01:27:31;;;;;;;;;;;;;;;23.15;42.99;91291.97;5013540;28;9400;-56
2024/03/27 01:30:07;;;;;;;;;;;;;;;23.15;43.22;91283.75;5013631;28;9585;-56
2024/03/27 01:32:45;;;;;;;;;;;;;;;23.16;42.71;91279.69;5013682;28;7157;-61
2024/03/27 01:35:14;;;;;;;;;;;;;;;23.13;42.79;91267.16;4993252;28;7199;-61
2024/03/27 01:37:40;;;;;;;;;;;;;;;23.08;43.28;91273.59;5007843;28;7056;-61
2024/03/27 01:40:06;;;;;;;;;;;;;;;23.12;42.93;91281.41;5005895;28;7297;-61
2024/03/27 01:42:35;;;;;;;;;;;;;;;23.13;43.00;91272.63;4988614;28;7467;-61
2024/03/27 01:45:02;;;;;;;;;;;;;;;23.07;43.05;91263.22;4985046;28;7309;-61
2024/03/27 01:47:28;;;;;;;;;;;;;;;23.03;42.99;91263.63;4987016;28;7109;-61
2024/03/27 01:49:58;;;;;;;;;;;;;;;23.10;42.93;91249.09;4993663;28;7485;-61
2024/03/27 01:52:40;;;;;;;;;;;;;;;23.08;43.12;91243.44;5006645;28;7378;-61
2024/03/27 01:55:35;;;;;;;;;;;;;;;23.11;42.98;91253.28;5056621;28;7239;-60
2024/03/27 01:58:01;;;;;;;;;;;;;;;23.04;43.20;91215.00;5012678;28;8407;-61
2024/03/27 02:00:27;;;;;;;;;;;;;;;23.09;43.28;91216.78;4999698;28;7267;-61
2024/03/27 02:03:04;;;;;;;;;;;;;;;23.06;42.95;91221.38;5013388;28;9366;-61
2024/03/27 02:05:45;;;;;;;;;;;;;;;23.01;43.02;91225.09;5009907;28;7023;-61
2024/03/27 02:09:04;;;;;;;;;;;;;;;23.07;42.95;91225.56;4993415;28;6959;-61
2024/03/27 02:11:30;;;;;;;;;;;;;;;22.98;43.07;91198.84;4957747;28;9015;-61
2024/03/27 02:14:15;;;;;;;;;;;;;;;23.05;43.36;91216.47;4957549;28;7251;-61
2024/03/27 02:17:12;;;;;;;;;;;;;;;23.05;42.99;91221.94;4978252;28;7067;-61
2024/03/27 02:19:57;;;;;;;;;;;;;;;22.98;43.19;91209.78;4976539;28;7531;-61
2024/03/27 02:22:28;;;;;;;;;;;;;;;22.97;43.22;91208.34;4976666;28;7362;-61
2024/03/27 02:25:09;;;;;;;;;;;;;;;22.98;43.12;91225.50;4958268;28;7036;-61
2024/03/27 02:27:55;;;;;;;;;;;;;;;23.02;43.54;91204.63;4995407;28;6992;-61
2024/03/27 02:30:30;;;;;;;;;;;;;;;23.00;43.61;91215.44;4975574;28;10138;-61
2024/03/27 02:33:45;;;;;;;;;;;;;;;23.00;43.43;91211.97;4992836;28;9274;-61
2024/03/27 02:36:13;;;;;;;;;;;;;;;22.92;43.33;91151.06;4998810;28;8753;-61
2024/03/27 02:38:51;;;;;;;;;;;;;;;22.99;43.55;91150.94;5012155;28;7363;-61
2024/03/27 02:41:37;;;;;;;;;;;;;;;22.99;43.40;91150.94;5003188;28;9405;-62
2024/03/27 02:44:04;;;;;;;;;;;;;;;22.97;43.34;91148.03;5012032;28;7602;-63
2024/03/27 02:46:32;;;;;;;;;;;;;;;22.97;43.30;91141.84;5005950;28;9429;-63
2024/03/27 02:48:59;;;;;;;;;;;;;;;22.96;43.28;91149.34;5051573;28;9129;-63
2024/03/27 02:51:48;;;;;;;;;;;;;;;22.98;43.11;91144.03;5064073;28;7019;-63
2024/03/27 02:54:20;;;;;;;;;;;;;;;22.99;43.27;91161.91;5061044;28;7106;-63
2024/03/27 02:56:48;;;;;;;;;;;;;;;22.97;43.21;91152.78;5065572;28;9077;-63
2024/03/27 02:59:14;;;;;;;;;;;;;;;22.98;43.53;91124.84;5066063;28;8986;-63
2024/03/27 03:01:42;;;;;;;;;;;;;;;22.96;43.28;91130.16;5057930;28;7168;-63
2024/03/27 03:04:08;;;;;;;;;;;;;;;22.92;43.73;91126.41;5046681;28;7386;-63
2024/03/27 03:06:36;;;;;;;;;;;;;;;22.96;43.67;91135.66;5045404;28;7434;-63
2024/03/27 03:09:53;;;;;;;;;;;;;;;22.96;43.48;91123.97;5072865;28;9222;-63
2024/03/27 03:12:19;;;;;;;;;;;;;;;22.96;43.59;91121.22;5003570;28;7555;-63
2024/03/27 03:14:48;;;;;;;;;;;;;;;22.94;43.63;91118.31;4985836;28;9099;-63
2024/03/27 03:17:17;;;;;;;;;;;;;;;22.92;43.35;91120.91;5002045;28;7250;-63
2024/03/27 03:19:43;;;;;;;;;;;;;;;22.94;43.47;91126.56;4999366;28;9964;-63
2024/03/27 03:22:18;;;;;;;;;;;;;;;22.96;43.62;91123.97;4976713;28;8685;-63
2024/03/27 03:25:00;;;;;;;;;;;;;;;22.92;43.66;91079.81;5003461;28;7266;-63
2024/03/27 03:27:55;;;;;;;;;;;;;;;22.94;42.98;91088.19;4982305;28;7951;-63
2024/03/27 03:30:53;;;;;;;;;;;;;;;22.95;43.23;91117.03;4940124;28;7158;-63
2024/03/27 03:33:21;;;;;;;;;;;;;;;22.88;43.39;91113.09;4952179;28;8915;-63
2024/03/27 03:36:03;;;;;;;;;;;;;;;22.96;43.81;91119.22;4953210;28;7219;-63
2024/03/27 03:38:39;;;;;;;;;;;;;;;22.91;43.41;91113.97;4956368;28;7304;-62
2024/03/27 03:41:30;;;;;;;;;;;;;;;22.95;43.36;91117.75;4965370;28;7023;-63
2024/03/27 03:44:07;;;;;;;;;;;;;;;22.87;43.35;91097.25;4968222;28;7253;-63
2024/03/27 03:46:40;;;;;;;;;;;;;;;22.95;43.54;91125.25;4975782;28;9878;-63
2024/03/27 03:49:10;;;;;;;;;;;;;;;22.93;43.64;91114.84;4976580;28;7199;-63
2024/03/27 03:51:42;;;;;;;;;;;;;;;22.93;42.96;91101.16;4995007;28;9915;-59
2024/03/27 03:54:08;;;;;;;;;;;;;;;22.90;42.99;91094.06;4993978;28;8681;-59
2024/03/27 03:56:44;;;;;;;;;;;;;;;22.83;43.50;91075.75;4995029;28;9631;-59
2024/03/27 03:59:10;;;;;;;;;;;;;;;22.83;43.32;91070.28;4978913;28;6880;-59
2024/03/27 04:01:40;;;;;;;;;;;;;;;22.89;43.34;91070.00;4970213;28;7547;-59
2024/03/27 04:04:08;;;;;;;;;;;;;;;22.84;43.59;91079.91;4987245;28;9721;-59
2024/03/27 04:06:46;;;;;;;;;;;;;;;22.84;43.47;91085.41;5028776;28;7218;-59
2024/03/27 04:09:22;;;;;;;;;;;;;;;22.89;43.49;91097.38;5059331;28;7212;-59
2024/03/27 04:12:20;;;;;;;;;;;;;;;22.88;43.70;91102.13;5060795;28;7201;-59
2024/03/27 04:14:51;;;;;;;;;;;;;;;22.82;43.95;91090.00;5068965;28;8083;-59
2024/03/27 04:17:33;;;;;;;;;;;;;;;22.87;43.67;91097.97;5073938;28;7409;-59
2024/03/27 04:20:00;;;;;;;;;;;;;;;22.88;43.55;91095.97;5057197;28;9199;-59
2024/03/27 04:22:31;;;;;;;;;;;;;;;22.82;43.79;91077.03;5054948;28;7039;-59
2024/03/27 04:24:59;;;;;;;;;;;;;;;22.86;43.57;91091.03;5073329;28;7243;-59
2024/03/27 04:27:24;;;;;;;;;;;;;;;22.81;43.74;91074.88;5042722;28;7064;-59
2024/03/27 04:29:54;;;;;;;;;;;;;;;22.79;43.57;91053.53;5048665;28;7014;-59
2024/03/27 04:32:20;;;;;;;;;;;;;;;22.86;43.50;91058.16;5061644;28;7123;-60
2024/03/27 04:34:46;;;;;;;;;;;;;;;22.86;43.60;91065.66;5056854;28;9617;-59
2024/03/27 04:37:12;;;;;;;;;;;;;;;22.82;43.80;91057.84;5055542;28;7082;-59
2024/03/27 04:39:38;;;;;;;;;;;;;;;22.81;43.84;91050.94;5057398;28;7042;-59
2024/03/27 04:42:10;;;;;;;;;;;;;;;22.84;43.69;91049.78;5053845;28;7043;-59
2024/03/27 04:44:36;;;;;;;;;;;;;;;22.85;43.50;91037.53;5059642;28;8981;-59
2024/03/27 04:47:07;;;;;;;;;;;;;;;22.81;43.59;91031.03;5056695;28;7063;-59
2024/03/27 04:49:37;;;;;;;;;;;;;;;22.82;43.85;91049.63;5059796;28;7057;-59
2024/03/27 04:52:03;;;;;;;;;;;;;;;22.83;43.90;91066.81;5058444;28;7663;-59
2024/03/27 04:54:32;;;;;;;;;;;;;;;22.80;43.80;91052.22;5070138;28;7004;-59
2024/03/27 04:57:00;;;;;;;;;;;;;;;22.85;43.52;91039.56;5073775;28;8990;-59
2024/03/27 04:59:26;;;;;;;;;;;;;;;22.84;43.64;91038.81;5038165;28;7273;-59
2024/03/27 05:01:54;;;;;;;;;;;;;;;22.76;43.61;91013.56;5066693;28;9527;-60
2024/03/27 05:04:20;;;;;;;;;;;;;;;22.84;43.60;91049.78;5070275;28;7898;-60
2024/03/27 05:07:07;;;;;;;;;;;;;;;22.80;43.74;91040.53;5063352;28;8465;-59
2024/03/27 05:09:54;;;;;;;;;;;;;;;22.85;43.81;91047.75;5057846;28;9706;-59
2024/03/27 05:12:28;;;;;;;;;;;;;;;22.86;43.93;91035.53;5090347;28;7195;-59
2024/03/27 05:15:10;;;;;;;;;;;;;;;22.83;44.13;91037.38;5058272;28;7191;-59
2024/03/27 05:17:38;;;;;;;;;;;;;;;22.83;43.38;91045.59;5057347;28;7053;-59
2024/03/27 05:20:17;;;;;;;;;;;;;;;22.84;43.55;91035.34;5055296;28;8469;-59
2024/03/27 05:22:51;;;;;;;;;;;;;;;22.86;44.25;91049.94;5071623;28;9538;-59
2024/03/27 05:25:27;;;;;;;;;;;;;;;22.88;44.28;91052.13;5057849;28;8677;-59
2024/03/27 05:28:16;;;;;;;;;;;;;;;22.85;44.28;91056.00;5053777;28;7022;-58
2024/03/27 05:30:56;;;;;;;;;;;;;;;22.94;44.79;91071.75;5051670;28;7099;-58
2024/03/27 05:33:32;;;;;;;;;;;;;;;22.96;44.60;91042.47;5067503;28;7093;-58
2024/03/27 05:36:34;;;;;;;;;;;;;;;23.05;44.63;91044.50;5067385;28;7204;-58
2024/03/27 05:39:16;;;;;;;;;;;;;;;22.98;44.42;91039.88;4988689;28;7249;-57
2024/03/27 05:41:43;;;;;;;;;;;;;;;23.07;44.78;91066.59;4992660;28;6991;-56
2024/03/27 05:44:10;;;;;;;;;;;;;;;23.09;44.93;91066.00;5000054;28;8842;-57
2024/03/27 05:46:53;;;;;;;;;;;;;;;23.13;44.69;91060.81;5002209;28;7372;-58
2024/03/27 05:49:19;;;;;;;;;;;;;;;23.09;44.94;91058.50;4981025;28;7241;-57
2024/03/27 05:51:54;;;;;;;;;;;;;;;23.14;44.89;91054.75;4995490;28;8820;-57
2024/03/27 05:54:31;;;;;;;;;;;;;;;23.15;45.27;91053.47;5003669;28;7368;-57
2024/03/27 05:57:00;;;;;;;;;;;;;;;23.16;45.15;91043.22;4999868;28;9816;-59
2024/03/27 05:59:28;;;;;;;;;;;;;;;23.13;45.43;91047.84;4987671;28;7350;-58
2024/03/27 06:01:57;;;;;;;;;;;;;;;23.15;44.91;91052.75;5000742;28;7016;-62
2024/03/27 06:04:25;;;;;;;;;;;;;;;23.22;45.13;91066.34;4998489;28;7276;-62
2024/03/27 06:07:04;;;;;;;;;;;;;;;23.23;44.78;91059.53;5012209;28;9047;-62
2024/03/27 06:09:39;;;;;;;;;;;;;;;23.21;44.62;91067.63;4993156;28;7328;-62
2024/03/27 06:12:17;;;;;;;;;;;;;;;23.23;44.60;91056.78;4992513;28;7280;-62
2024/03/27 06:14:59;;;;;;;;;;;;;;;23.17;43.29;91072.81;5056578;28;7023;-62
2024/03/27 06:17:54;;;;;;;;;;;;;;;23.13;43.47;91066.31;5068243;28;9504;-62
2024/03/27 06:20:47;;;;;;;;;;;;;;;23.14;43.65;91075.97;5045841;28;7930;-62
2024/03/27 06:23:28;;;;;;;;;;;;;;;23.07;43.48;91057.63;4973143;28;9177;-62
2024/03/27 06:26:01;;;;;;;;;;;;;;;23.13;44.09;91088.97;4957195;28;9121;-62
2024/03/27 06:28:41;;;;;;;;;;;;;;;23.09;43.88;91090.69;4968075;28;7037;-62
2024/03/27 06:31:23;;;;;;;;;;;;;;;23.16;47.07;91098.75;4960074;28;7046;-63
2024/03/27 06:33:51;;;;;;;;;;;;;;;23.30;46.98;91109.31;4966110;28;6951;-64
2024/03/27 06:36:28;;;;;;;;;;;;;;;23.33;46.26;91117.19;4971165;28;7041;-62
2024/03/27 06:39:12;;;;;;;;;;;;;;;23.38;46.44;91123.69;4964272;28;9019;-64
2024/03/27 06:42:27;;;;;;;;;;;;;;;23.35;46.07;91141.28;4956347;28;8076;-63
2024/03/27 06:45:05;;;;;;;;;;;;;;;23.31;45.35;91140.94;4896022;29;7053;-60
2024/03/27 06:47:33;;;;;;;;;;;;;;;23.30;45.21;91131.25;4900761;29;7303;-60
2024/03/27 06:50:10;;;;;;;;;;;;;;;23.29;45.22;91138.78;4912174;29;7341;-60
2024/03/27 06:52:36;;;;;;;;;;;;;;;23.22;45.13;91143.09;4905679;29;9038;-61
2024/03/27 06:55:20;;;;;;;;;;;;;;;23.25;45.84;91158.38;4915179;29;7099;-60
2024/03/27 06:57:50;;;;;;;;;;;;;;;23.30;45.39;91151.19;4920372;29;9088;-60
2024/03/27 07:00:17;;;;;;;;;;;;;;;23.35;45.30;91157.72;4967648;28;9375;-60
2024/03/27 07:02:45;;;;;;;;;;;;;;;23.35;45.38;91155.72;4985461;28;9527;-60
2024/03/27 07:05:12;;;;;;;;;;;;;;;23.34;45.17;91167.25;4992530;28;7026;-60
2024/03/27 07:07:50;;;;;;;;;;;;;;;23.30;45.49;91162.16;4991796;28;7263;-60
2024/03/27 07:10:16;;;;;;;;;;;;;;;23.27;44.95;91158.53;4992541;28;9135;-60
2024/03/27 07:12:42;;;;;;;;;;;;;;;23.34;44.95;91170.72;4976407;28;9104;-66
2024/03/27 07:15:08;;;;;;;;;;;;;;;23.32;44.95;91167.06;5010110;28;9383;-66
2024/03/27 07:17:46;;;;;;;;;;;;;;;23.29;45.22;91173.72;5003627;28;7259;-66
2024/03/27 07:20:12;;;;;;;;;;;;;;;23.35;45.19;91157.72;5003052;28;7200;-66
2024/03/27 07:22:38;;;;;;;;;;;;;;;23.31;45.30;91149.91;5057665;28;6986;-66
2024/03/27 07:25:06;;;;;;;;;;;;;;;23.36;44.98;91170.84;5075150;28;7849;-66
2024/03/27 07:27:46;;;;;;;;;;;;;;;23.29;45.33;91157.97;5086796;28;8875;-67
2024/03/27 07:30:47;;;;;;;;;;;;;;;23.35;44.91;91158.47;5077401;28;7257;-67
2024/03/27 07:33:28;;;;;;;;;;;;;;;23.35;44.94;91174.19;5062908;28;7102;-66
2024/03/27 07:36:15;;;;;;;;;;;;;;;23.36;45.12;91170.16;5054499;28;9546;-66
2024/03/27 07:38:41;;;;;;;;;;;;;;;23.38;45.02;91181.28;5077699;28;7284;-67
2024/03/27 07:41:24;;;;;;;;;;;;;;;23.38;44.99;91173.75;5077564;28;7358;-67
2024/03/27 07:43:50;;;;;;;;;;;;;;;23.41;44.89;91182.84;5045451;28;7164;-67
2024/03/27 07:46:16;;;;;;;;;;;;;;;23.37;44.92;91168.84;5059312;28;7181;-68
2024/03/27 07:48:44;;;;;;;;;;;;;;;23.33;44.70;91147.34;5055769;28;7035;-66
2024/03/27 07:51:12;;;;;;;;;;;;;;;23.43;44.48;91156.31;5047913;28;7097;-67
2024/03/27 07:53:50;;;;;;;;;;;;;;;23.44;45.44;91154.28;5057605;28;9209;-67
2024/03/27 07:56:20;;;;;;;;;;;;;;;23.37;44.91;91155.88;5073048;28;7030;-68
2024/03/27 07:58:46;;;;;;;;;;;;;;;23.39;44.73;91166.97;5075327;28;7187;-68
2024/03/27 08:01:14;;;;;;;;;;;;;;;23.43;44.46;91193.97;5076474;28;7233;-67
2024/03/27 08:03:40;;;;;;;;;;;;;;;23.48;45.10;91209.44;5038932;28;7383;-68
2024/03/27 08:06:06;;;;;;;;;;;;;;;23.39;44.60;91215.63;5074279;28;9033;-67
2024/03/27 08:08:39;;;;;;;;;;;;;;;23.46;44.90;91247.69;5073558;28;7055;-68
2024/03/27 08:11:06;;;;;;;;;;;;;;;23.44;44.73;91253.03;5060754;28;9019;-67
2024/03/27 08:13:33;;;;;;;;;;;;;;;23.44;44.50;91267.47;5075559;28;7276;-68
2024/03/27 08:16:18;;;;;;;;;;;;;;;23.51;44.73;91287.84;5063307;28;7238;-67
2024/03/27 08:18:46;;;;;;;;;;;;;;;23.45;44.53;91279.16;5073375;28;7172;-67
2024/03/27 08:21:25;;;;;;;;;;;;;;;23.52;44.28;91283.81;5058175;28;7601;-60
2024/03/27 08:23:51;;;;;;;;;;;;;;;23.47;44.90;91277.28;5038923;28;7041;-60
2024/03/27 08:26:17;;;;;;;;;;;;;;;23.54;44.80;91279.19;5053929;28;7224;-58
2024/03/27 08:28:43;;;;;;;;;;;;;;;23.64;45.08;91277.19;5075326;28;7552;-60
2024/03/27 08:31:16;;;;;;;;;;;;;;;23.66;44.70;91279.41;5075690;28;7393;-61
2024/03/27 08:34:10;;;;;;;;;;;;;;;23.72;44.84;91285.34;5076638;28;7030;-61
2024/03/27 08:36:40;;;;;;;;;;;;;;;23.76;43.96;91278.13;5038599;28;8234;-61
2024/03/27 08:39:09;;;;;;;;;;;;;;;23.77;44.64;91273.38;5028701;28;7051;-61
2024/03/27 08:41:47;;;;;;;;;;;;;;;23.86;44.45;91284.34;5071826;28;9456;-60
2024/03/27 08:44:47;;;;;;;;;;;;;;;23.92;44.29;91295.78;5067184;28;6989;-61
2024/03/27 08:47:14;;;;;;;;;;;;;;;24.01;43.78;91291.66;4975736;28;9034;-60
2024/03/27 08:49:44;;;;;;;;;;;;;;;24.09;43.80;91292.25;4991111;28;8949;-61
2024/03/27 08:52:11;;;;;;;;;;;;;;;24.19;43.74;91297.75;4994377;28;8710;-60
2024/03/27 08:55:17;;;;;;;;;;;;;;;24.32;43.15;91303.56;4991595;28;7183;-61
2024/03/27 08:57:53;;;;;;;;;;;;;;;24.39;43.20;91310.97;4978074;28;7277;-60
2024/03/27 09:00:20;;;;;;;;;;;;;;;24.50;43.35;91312.41;4992204;28;7047;-61
2024/03/27 09:02:49;;;;;;;;;;;;;;;24.58;43.31;91302.72;4994271;28;7034;-60
2024/03/27 09:05:18;;;;;;;;;;;;;;;24.71;42.49;91307.78;4994666;28;7031;-60
2024/03/27 09:08:04;;;;;;;;;;;;;;;24.83;42.17;91307.25;4978346;28;7037;-61
2024/03/27 09:10:50;;;;;;;;;;;;;;;24.93;42.17;91307.94;4994445;28;7375;-60
2024/03/27 09:13:16;;;;;;;;;;;;;;;24.97;42.04;91319.97;4977587;28;7046;-61
2024/03/27 09:15:47;;;;;;;;;;;;;;;25.04;41.91;91329.38;4958597;28;7820;-60
2024/03/27 09:18:44;;;;;;;;;;;;;;;25.11;42.30;91337.47;4976892;28;9537;-60
2024/03/27 09:21:23;;;;;;;;;;;;;;;25.16;42.10;91325.47;4936078;29;7165;-60
2024/03/27 09:23:52;;;;;;;;;;;;;;;25.12;41.81;91327.91;4946105;28;7240;-60
2024/03/27 09:26:56;;;;;;;;;;;;;;;25.25;41.56;91346.00;4955676;28;7062;-61
2024/03/27 09:29:30;;;;;;;;;;;;;;;25.23;41.25;91348.59;4955914;28;9266;-60
2024/03/27 09:31:58;;;;;;;;;;;;;;;25.32;42.06;91364.38;4969547;28;7037;-59
2024/03/27 09:34:40;;;;;;;;;;;;;;;25.33;41.75;91360.31;4972528;28;7129;-59
2024/03/27 09:37:06;;;;;;;;;;;;;;;25.34;41.36;91376.25;4958433;28;7304;-59
2024/03/27 09:40:03;;;;;;;;;;;;;;;25.35;42.04;91385.97;4958317;28;7249;-59
2024/03/27 09:42:34;;;;;;;;;;;;;;;25.31;41.74;91387.69;4934579;29;8754;-59
2024/03/27 09:45:17;;;;;;;;;;;;;;;25.36;41.74;91398.41;4918561;29;9424;-59
2024/03/27 09:47:53;;;;;;;;;;;;;;;25.30;41.14;91394.50;4935362;29;7382;-59
2024/03/27 09:50:35;;;;;;;;;;;;;;;25.37;41.15;91410.84;4933799;29;7234;-58
2024/03/27 09:53:12;;;;;;;;;;;;;;;25.37;41.11;91413.63;4935105;29;9311;-59
2024/03/27 09:55:39;;;;;;;;;;;;;;;25.30;41.38;91403.47;4935314;29;7317;-58
2024/03/27 09:58:12;;;;;;;;;;;;;;;25.38;41.94;91430.84;4974620;28;6953;-60
2024/03/27 10:00:39;;;;;;;;;;;;;;;25.28;41.93;91419.84;5007362;28;7493;-60
2024/03/27 10:03:06;;;;;;;;;;;;;;;25.30;41.44;91433.00;5029555;28;7282;-60
2024/03/27 10:05:36;;;;;;;;;;;;;;;25.28;41.52;91432.84;5029502;28;7089;-60
2024/03/27 10:08:20;;;;;;;;;;;;;;;25.28;41.06;91433.59;5026301;28;7023;-60
2024/03/27 10:10:57;;;;;;;;;;;;;;;25.29;41.69;91439.81;5032366;28;8920;-60
2024/03/27 10:13:32;;;;;;;;;;;;;;;25.26;42.10;91433.44;5032462;28;7310;-60
2024/03/27 10:16:09;;;;;;;;;;;;;;;25.26;41.52;91447.19;5032418;28;7242;-60
2024/03/27 10:18:40;;;;;;;;;;;;;;;25.26;41.57;91454.72;5043798;28;7407;-60
2024/03/27 10:21:06;;;;;;;;;;;;;;;25.21;41.72;91459.22;5074047;28;6993;-60
2024/03/27 10:24:04;;;;;;;;;;;;;;;25.25;41.55;91467.75;5074276;28;9432;-60
2024/03/27 10:26:38;;;;;;;;;;;;;;;25.24;42.30;91465.59;4992975;28;7575;-60
2024/03/27 10:29:24;;;;;;;;;;;;;;;25.26;42.17;91482.22;4976817;28;9483;-60
2024/03/27 10:31:53;;;;;;;;;;;;;;;25.18;41.61;91465.16;4992664;28;7069;-60
2024/03/27 10:34:39;;;;;;;;;;;;;;;25.18;42.44;91470.66;4985700;28;7377;-60
2024/03/27 10:37:11;;;;;;;;;;;;;;;25.23;42.13;91475.84;4987053;28;7252;-59
2024/03/27 10:39:58;;;;;;;;;;;;;;;25.26;41.46;91463.72;4985181;28;7346;-59
2024/03/27 10:42:43;;;;;;;;;;;;;;;25.28;41.63;91479.63;4989280;28;7345;-58
2024/03/27 10:45:11;;;;;;;;;;;;;;;25.28;41.88;91485.13;4991783;28;7067;-58
2024/03/27 10:47:40;;;;;;;;;;;;;;;25.28;42.24;91499.63;4989370;28;9091;-60
2024/03/27 10:50:27;;;;;;;;;;;;;;;25.14;47.82;91514.38;4972149;28;7160;-60
2024/03/27 10:53:07;;;;;;;;;;;;;;;25.05;47.13;91520.56;4980300;28;7115;-60
2024/03/27 10:56:02;;;;;;;;;;;;;;;24.96;46.60;91526.75;4975594;28;7571;-60
2024/03/27 10:58:36;;;;;;;;;;;;;;;24.85;45.64;91517.03;4968852;28;7178;-58
2024/03/27 11:01:06;;;;;;;;;;;;;;;24.82;44.19;91514.69;4972446;28;7077;-58
2024/03/27 11:03:37;;;;;;;;;;;;;;;24.87;44.77;91535.69;5003251;28;7062;-58
2024/03/27 11:06:03;;;;;;;;;;;;;;;24.81;44.27;91530.50;5037970;28;7165;-58
2024/03/27 11:08:32;;;;;;;;;;;;;;;24.82;44.67;91525.69;5020305;28;7191;-58
2024/03/27 11:11:09;;;;;;;;;;;;;;;24.82;44.27;91528.44;5029661;28;7791;-58
2024/03/27 11:17:32;;;;;;;;;;;;;;;24.77;43.41;91530.19;5031202;28;6764;-58
2024/03/27 11:20:19;;;;;;;;;;;;;;;24.86;43.93;91550.75;5012077;28;7109;-58
2024/03/27 11:23:30;;;;;;;;;;;;;;;24.92;43.16;91545.72;5029915;28;7373;-58
2024/03/27 11:26:00;;;;;;;;;;;;;;;24.91;42.93;91553.22;4981306;28;7299;-58
2024/03/27 11:28:53;;;;;;;;;;;;;;;24.92;42.89;91562.94;4992590;28;7023;-58
2024/03/27 11:31:22;;;;;;;;;;;;;;;24.91;42.68;91572.47;4990690;28;8954;-58
2024/03/27 11:33:57;;;;;;;;;;;;;;;25.00;43.12;91573.81;4977054;28;8619;-60
2024/03/27 11:36:58;;;;;;;;;;;;;;;25.14;42.60;91566.63;5011651;28;7474;-59
2024/03/27 11:39:26;;;;;;;;;;;;;;;25.19;42.81;91571.09;4970413;28;7342;-59
2024/03/27 11:41:53;;;;;;;;;;;;;;;25.19;42.18;91582.09;4969926;28;7117;-60
2024/03/27 11:44:34;;;;;;;;;;;;;;;25.23;41.13;91574.16;4971279;28;8699;-60
2024/03/27 11:47:32;;;;;;;;;;;;;;;25.35;40.88;91588.81;4972718;28;7054;-60
2024/03/27 11:50:00;;;;;;;;;;;;;;;25.31;40.40;91588.53;4914717;29;7057;-59
2024/03/27 11:52:38;;;;;;;;;;;;;;;25.29;41.78;91604.88;4915862;29;9108;-62
2024/03/27 11:55:09;;;;;;;;;;;;;;;25.30;41.62;91601.53;4914912;29;9274;-62
2024/03/27 11:57:46;;;;;;;;;;;;;;;25.24;41.10;91594.88;4920325;29;6991;-62
2024/03/27 12:00:12;;;;;;;;;;;;;;;25.33;41.34;91596.94;4914486;29;7262;-62
2024/03/27 12:02:41;;;;;;;;;;;;;;;25.37;41.57;91610.97;4899465;29;9130;-61
2024/03/27 12:05:22;;;;;;;;;;;;;;;25.40;41.62;91613.28;4933031;29;7019;-61
2024/03/27 12:07:48;;;;;;;;;;;;;;;25.46;41.44;91620.59;4917994;29;6998;-60
2024/03/27 12:10:47;;;;;;;;;;;;;;;25.47;41.41;91617.25;4918609;29;9117;-61
2024/03/27 12:13:18;;;;;;;;;;;;;;;25.46;41.40;91620.59;4932709;29;7408;-61
2024/03/27 12:15:47;;;;;;;;;;;;;;;25.52;40.52;91629.28;4945054;28;7023;-61
2024/03/27 12:18:26;;;;;;;;;;;;;;;25.51;40.41;91625.81;4950214;28;7248;-61
2024/03/27 12:21:11;;;;;;;;;;;;;;;25.58;41.09;91632.50;4935734;29;7625;-61
2024/03/27 12:23:43;;;;;;;;;;;;;;;25.58;41.22;91640.75;4940092;28;7046;-61
2024/03/27 12:26:14;;;;;;;;;;;;;;;25.59;40.93;91661.47;4973109;28;9014;-61
2024/03/27 12:28:49;;;;;;;;;;;;;;;25.59;41.33;91653.94;4978492;28;7308;-61
2024/03/27 12:31:24;;;;;;;;;;;;;;;25.62;40.85;91657.56;4960614;28;7020;-61
2024/03/27 12:33:58;;;;;;;;;;;;;;;25.60;41.16;91647.13;4989230;28;8984;-60
2024/03/27 12:36:37;;;;;;;;;;;;;;;25.61;41.10;91656.09;4983209;28;7910;-59
2024/03/27 12:39:18;;;;;;;;;;;;;;;25.55;40.46;91656.38;4974601;28;7910;-59
2024/03/27 12:41:58;;;;;;;;;;;;;;;25.47;40.87;91653.03;4984395;28;8807;-59
2024/03/27 12:45:09;;;;;;;;;;;;;;;25.51;41.30;91661.59;4973255;28;7301;-59
2024/03/27 12:48:00;;;;;;;;;;;;;;;25.47;41.29;91660.56;4896032;29;9120;-59
2024/03/27 12:51:16;;;;;;;;;;;;;;;25.46;41.05;91661.84;4937001;29;9075;-59
2024/03/27 12:53:54;;;;;;;;;;;;;;;25.43;40.88;91666.47;4864171;29;7899;-59
2024/03/27 12:56:50;;;;;;;;;;;;;;;25.41;40.54;91677.31;4880088;29;7593;-59
2024/03/27 12:59:15;;;;;;;;;;;;;;;25.41;41.17;91666.31;4874596;29;6909;-59
2024/03/27 13:01:44;;;;;;;;;;;;;;;25.40;40.68;91664.88;4898982;29;7635;-57
2024/03/27 13:04:09;;;;;;;;;;;;;;;25.42;41.22;91673.31;4883211;29;8941;-57
2024/03/27 13:06:38;;;;;;;;;;;;;;;25.39;40.71;91675.13;4898451;29;6995;-58
2024/03/27 13:09:18;;;;;;;;;;;;;;;25.34;40.35;91672.66;4898397;29;7509;-57
2024/03/27 13:11:47;;;;;;;;;;;;;;;25.41;40.90;91702.06;4890203;29;8998;-57
2024/03/27 13:14:13;;;;;;;;;;;;;;;25.40;40.43;91703.38;4890858;29;9057;-57
2024/03/27 13:16:49;;;;;;;;;;;;;;;25.37;41.08;91704.53;4882663;29;7275;-57
2024/03/27 13:19:24;;;;;;;;;;;;;;;25.40;40.64;91695.13;4898575;29;7059;-57
2024/03/27 13:22:03;;;;;;;;;;;;;;;25.36;40.42;91695.53;4898079;29;7438;-57
2024/03/27 13:24:40;;;;;;;;;;;;;;;25.27;40.40;91687.25;4927760;28;7300;-57
2024/03/27 13:27:12;;;;;;;;;;;;;;;25.34;40.75;91700.16;4972272;28;9060;-58
2024/03/27 13:30:17;;;;;;;;;;;;;;;25.34;40.66;91706.41;4990345;28;7280;-57
2024/03/27 13:32:47;;;;;;;;;;;;;;;25.32;40.26;91711.75;5011815;28;7284;-57
2024/03/27 13:35:14;;;;;;;;;;;;;;;25.32;40.85;91711.00;5013503;28;7031;-58
2024/03/27 13:37:44;;;;;;;;;;;;;;;25.34;40.44;91724.91;5011706;28;7180;-57
2024/03/27 13:40:15;;;;;;;;;;;;;;;25.35;40.77;91737.38;4996877;28;7219;-57
2024/03/27 13:42:53;;;;;;;;;;;;;;;25.33;40.13;91726.22;4996707;28;7553;-57
2024/03/27 13:45:19;;;;;;;;;;;;;;;25.26;39.99;91719.53;5011787;28;7329;-57